sensor_id;sensor_type;location;lat;lon;timestamp;P1;durP1;ratioP1;P2;durP2;ratioP2
86007;SDS011;76587;41.936;25.550;2024-02-21T00:00:38;37.38;;;18.73;;
86007;SDS011;76587;41.936;25.550;2024-02-21T00:03:04;35.78;;;17.10;;
86007;SDS011;76587;41.936;25.550;2024-02-21T00:05:30;36.05;;;19.92;;
86007;SDS011;76587;41.936;25.550;2024-02-21T00:07:55;39.33;;;20.33;;
86007;SDS011;76587;41.936;25.550;2024-02-21T00:10:21;36.42;;;20.02;;
86007;SDS011;76587;41.936;25.550;2024-02-21T00:12:46;37.88;;;16.33;;
86007;SDS011;76587;41.936;25.550;2024-02-21T00:15:12;37.08;;;19.50;;
86007;SDS011;76587;41.936;25.550;2024-02-21T00:17:37;32.25;;;16.27;;
86007;SDS011;76587;41.936;25.550;2024-02-21T00:20:03;33.50;;;14.70;;
86007;SDS011;76587;41.936;25.550;2024-02-21T00:22:29;34.08;;;16.60;;
86007;SDS011;76587;41.936;25.550;2024-02-21T00:24:56;29.58;;;16.25;;
86007;SDS011;76587;41.936;25.550;2024-02-21T00:27:23;31.67;;;13.85;;
86007;SDS011;76587;41.936;25.550;2024-02-21T00:29:48;30.25;;;13.88;;
86007;SDS011;76587;41.936;25.550;2024-02-21T00:32:14;29.35;;;15.52;;
86007;SDS011;76587;41.936;25.550;2024-02-21T00:34:39;27.65;;;13.98;;
86007;SDS011;76587;41.936;25.550;2024-02-21T00:37:05;28.23;;;13.77;;
86007;SDS011;76587;41.936;25.550;2024-02-21T00:39:30;29.98;;;16.33;;
86007;SDS011;76587;41.936;25.550;2024-02-21T00:41:56;28.45;;;15.45;;
86007;SDS011;76587;41.936;25.550;2024-02-21T00:44:21;29.58;;;14.75;;
86007;SDS011;76587;41.936;25.550;2024-02-21T00:46:47;30.85;;;13.93;;
86007;SDS011;76587;41.936;25.550;2024-02-21T00:49:12;35.53;;;15.52;;
86007;SDS011;76587;41.936;25.550;2024-02-21T00:51:38;29.83;;;13.10;;
86007;SDS011;76587;41.936;25.550;2024-02-21T00:54:03;31.50;;;14.60;;
86007;SDS011;76587;41.936;25.550;2024-02-21T00:56:29;31.17;;;15.02;;
86007;SDS011;76587;41.936;25.550;2024-02-21T00:58:55;27.50;;;12.70;;
86007;SDS011;76587;41.936;25.550;2024-02-21T01:01:24;27.80;;;14.07;;
86007;SDS011;76587;41.936;25.550;2024-02-21T01:03:50;31.42;;;13.27;;
86007;SDS011;76587;41.936;25.550;2024-02-21T01:06:18;30.50;;;14.20;;
86007;SDS011;76587;41.936;25.550;2024-02-21T01:08:45;27.95;;;12.52;;
86007;SDS011;76587;41.936;25.550;2024-02-21T01:11:12;28.65;;;13.52;;
86007;SDS011;76587;41.936;25.550;2024-02-21T01:13:37;26.25;;;12.82;;
86007;SDS011;76587;41.936;25.550;2024-02-21T01:16:03;33.03;;;15.52;;
86007;SDS011;76587;41.936;25.550;2024-02-21T01:18:28;26.63;;;12.77;;
86007;SDS011;76587;41.936;25.550;2024-02-21T01:20:54;24.83;;;13.20;;
86007;SDS011;76587;41.936;25.550;2024-02-21T01:23:19;31.85;;;14.93;;
86007;SDS011;76587;41.936;25.550;2024-02-21T01:25:45;31.10;;;14.18;;
86007;SDS011;76587;41.936;25.550;2024-02-21T01:28:10;35.88;;;17.48;;
86007;SDS011;76587;41.936;25.550;2024-02-21T01:30:36;29.58;;;15.82;;
86007;SDS011;76587;41.936;25.550;2024-02-21T01:33:01;33.47;;;17.35;;
86007;SDS011;76587;41.936;25.550;2024-02-21T01:35:27;24.98;;;12.90;;
86007;SDS011;76587;41.936;25.550;2024-02-21T01:37:52;29.05;;;15.20;;
86007;SDS011;76587;41.936;25.550;2024-02-21T01:40:17;30.00;;;13.18;;
86007;SDS011;76587;41.936;25.550;2024-02-21T01:42:43;37.92;;;16.48;;
86007;SDS011;76587;41.936;25.550;2024-02-21T01:45:08;38.85;;;19.05;;
86007;SDS011;76587;41.936;25.550;2024-02-21T01:47:34;39.17;;;18.02;;
86007;SDS011;76587;41.936;25.550;2024-02-21T01:50:01;37.45;;;17.55;;
86007;SDS011;76587;41.936;25.550;2024-02-21T01:52:28;37.15;;;16.20;;
86007;SDS011;76587;41.936;25.550;2024-02-21T01:54:55;40.42;;;18.90;;
86007;SDS011;76587;41.936;25.550;2024-02-21T01:57:22;35.80;;;17.58;;
86007;SDS011;76587;41.936;25.550;2024-02-21T01:59:48;43.42;;;18.38;;
86007;SDS011;76587;41.936;25.550;2024-02-21T02:02:14;44.10;;;23.35;;
86007;SDS011;76587;41.936;25.550;2024-02-21T02:04:41;37.03;;;20.27;;
86007;SDS011;76587;41.936;25.550;2024-02-21T02:07:08;38.55;;;19.73;;
86007;SDS011;76587;41.936;25.550;2024-02-21T02:09:33;34.75;;;16.63;;
86007;SDS011;76587;41.936;25.550;2024-02-21T02:11:59;31.52;;;16.85;;
86007;SDS011;76587;41.936;25.550;2024-02-21T02:14:26;37.05;;;18.13;;
86007;SDS011;76587;41.936;25.550;2024-02-21T02:16:51;24.90;;;12.80;;
86007;SDS011;76587;41.936;25.550;2024-02-21T02:19:16;29.83;;;17.23;;
86007;SDS011;76587;41.936;25.550;2024-02-21T02:21:53;31.33;;;14.48;;
86007;SDS011;76587;41.936;25.550;2024-02-21T02:24:23;25.65;;;13.55;;
86007;SDS011;76587;41.936;25.550;2024-02-21T02:26:52;26.95;;;14.45;;
86007;SDS011;76587;41.936;25.550;2024-02-21T02:29:18;29.30;;;14.23;;
86007;SDS011;76587;41.936;25.550;2024-02-21T02:31:44;30.52;;;16.25;;
86007;SDS011;76587;41.936;25.550;2024-02-21T02:34:09;27.52;;;12.93;;
86007;SDS011;76587;41.936;25.550;2024-02-21T02:36:35;28.10;;;12.77;;
86007;SDS011;76587;41.936;25.550;2024-02-21T02:39:01;31.25;;;15.93;;
86007;SDS011;76587;41.936;25.550;2024-02-21T02:41:26;28.38;;;14.00;;
86007;SDS011;76587;41.936;25.550;2024-02-21T02:43:52;30.55;;;16.30;;
86007;SDS011;76587;41.936;25.550;2024-02-21T02:46:17;26.00;;;12.75;;
86007;SDS011;76587;41.936;25.550;2024-02-21T02:48:43;33.00;;;16.33;;
86007;SDS011;76587;41.936;25.550;2024-02-21T02:51:09;32.90;;;15.15;;
86007;SDS011;76587;41.936;25.550;2024-02-21T02:53:35;35.85;;;16.55;;
86007;SDS011;76587;41.936;25.550;2024-02-21T02:56:01;32.88;;;15.50;;
86007;SDS011;76587;41.936;25.550;2024-02-21T02:58:26;31.90;;;17.08;;
86007;SDS011;76587;41.936;25.550;2024-02-21T03:00:52;32.20;;;16.42;;
86007;SDS011;76587;41.936;25.550;2024-02-21T03:03:17;33.30;;;16.33;;
86007;SDS011;76587;41.936;25.550;2024-02-21T03:05:43;39.78;;;18.35;;
86007;SDS011;76587;41.936;25.550;2024-02-21T03:08:08;41.20;;;15.70;;
86007;SDS011;76587;41.936;25.550;2024-02-21T03:10:34;29.90;;;14.82;;
86007;SDS011;76587;41.936;25.550;2024-02-21T03:12:59;37.55;;;15.85;;
86007;SDS011;76587;41.936;25.550;2024-02-21T03:15:24;33.22;;;14.75;;
86007;SDS011;76587;41.936;25.550;2024-02-21T03:17:50;34.67;;;15.73;;
86007;SDS011;76587;41.936;25.550;2024-02-21T03:20:15;34.95;;;14.57;;
86007;SDS011;76587;41.936;25.550;2024-02-21T03:22:41;35.08;;;15.73;;
86007;SDS011;76587;41.936;25.550;2024-02-21T03:25:07;34.25;;;15.13;;
86007;SDS011;76587;41.936;25.550;2024-02-21T03:27:33;39.35;;;17.33;;
86007;SDS011;76587;41.936;25.550;2024-02-21T03:29:59;32.80;;;15.02;;
86007;SDS011;76587;41.936;25.550;2024-02-21T03:32:24;37.80;;;17.63;;
86007;SDS011;76587;41.936;25.550;2024-02-21T03:34:50;35.20;;;15.80;;
86007;SDS011;76587;41.936;25.550;2024-02-21T03:37:15;33.28;;;14.20;;
86007;SDS011;76587;41.936;25.550;2024-02-21T03:39:41;37.58;;;16.10;;
86007;SDS011;76587;41.936;25.550;2024-02-21T03:42:06;31.50;;;15.65;;
86007;SDS011;76587;41.936;25.550;2024-02-21T03:44:32;33.75;;;15.38;;
86007;SDS011;76587;41.936;25.550;2024-02-21T03:47:00;31.05;;;15.43;;
86007;SDS011;76587;41.936;25.550;2024-02-21T03:49:26;37.15;;;17.95;;
86007;SDS011;76587;41.936;25.550;2024-02-21T03:51:52;39.08;;;18.92;;
86007;SDS011;76587;41.936;25.550;2024-02-21T03:54:17;44.35;;;17.30;;
86007;SDS011;76587;41.936;25.550;2024-02-21T03:56:43;37.80;;;17.25;;
86007;SDS011;76587;41.936;25.550;2024-02-21T03:59:08;37.63;;;17.92;;
86007;SDS011;76587;41.936;25.550;2024-02-21T04:01:34;43.85;;;18.40;;
86007;SDS011;76587;41.936;25.550;2024-02-21T04:04:00;42.05;;;18.13;;
86007;SDS011;76587;41.936;25.550;2024-02-21T04:06:26;40.20;;;15.90;;
86007;SDS011;76587;41.936;25.550;2024-02-21T04:08:51;40.95;;;17.98;;
86007;SDS011;76587;41.936;25.550;2024-02-21T04:11:17;38.47;;;17.52;;
86007;SDS011;76587;41.936;25.550;2024-02-21T04:13:44;52.78;;;22.10;;
86007;SDS011;76587;41.936;25.550;2024-02-21T04:16:10;46.90;;;18.88;;
86007;SDS011;76587;41.936;25.550;2024-02-21T04:18:35;38.28;;;17.33;;
86007;SDS011;76587;41.936;25.550;2024-02-21T04:21:00;45.10;;;20.58;;
86007;SDS011;76587;41.936;25.550;2024-02-21T04:23:26;42.20;;;18.05;;
86007;SDS011;76587;41.936;25.550;2024-02-21T04:25:51;43.67;;;21.35;;
86007;SDS011;76587;41.936;25.550;2024-02-21T04:28:17;37.92;;;17.55;;
86007;SDS011;76587;41.936;25.550;2024-02-21T04:30:43;38.85;;;17.08;;
86007;SDS011;76587;41.936;25.550;2024-02-21T04:33:08;37.58;;;17.92;;
86007;SDS011;76587;41.936;25.550;2024-02-21T04:35:35;41.03;;;18.13;;
86007;SDS011;76587;41.936;25.550;2024-02-21T04:38:01;38.45;;;18.88;;
86007;SDS011;76587;41.936;25.550;2024-02-21T04:40:26;41.17;;;19.83;;
86007;SDS011;76587;41.936;25.550;2024-02-21T04:42:52;39.85;;;22.02;;
86007;SDS011;76587;41.936;25.550;2024-02-21T04:45:17;45.08;;;19.35;;
86007;SDS011;76587;41.936;25.550;2024-02-21T04:47:43;44.85;;;22.08;;
86007;SDS011;76587;41.936;25.550;2024-02-21T04:50:09;40.95;;;20.48;;
86007;SDS011;76587;41.936;25.550;2024-02-21T04:52:35;47.05;;;23.17;;
86007;SDS011;76587;41.936;25.550;2024-02-21T04:55:00;46.75;;;22.08;;
86007;SDS011;76587;41.936;25.550;2024-02-21T04:57:26;45.42;;;21.92;;
86007;SDS011;76587;41.936;25.550;2024-02-21T04:59:51;51.03;;;23.40;;
86007;SDS011;76587;41.936;25.550;2024-02-21T05:02:17;47.92;;;23.65;;
86007;SDS011;76587;41.936;25.550;2024-02-21T05:04:44;50.30;;;21.48;;
86007;SDS011;76587;41.936;25.550;2024-02-21T05:07:10;52.55;;;27.20;;
86007;SDS011;76587;41.936;25.550;2024-02-21T05:09:36;54.22;;;26.50;;
86007;SDS011;76587;41.936;25.550;2024-02-21T05:12:02;59.95;;;28.88;;
86007;SDS011;76587;41.936;25.550;2024-02-21T05:14:28;61.85;;;26.25;;
86007;SDS011;76587;41.936;25.550;2024-02-21T05:16:53;59.72;;;28.77;;
86007;SDS011;76587;41.936;25.550;2024-02-21T05:19:19;60.95;;;29.88;;
86007;SDS011;76587;41.936;25.550;2024-02-21T05:21:45;49.95;;;25.35;;
86007;SDS011;76587;41.936;25.550;2024-02-21T05:24:11;53.22;;;25.45;;
86007;SDS011;76587;41.936;25.550;2024-02-21T05:26:36;51.22;;;26.92;;
86007;SDS011;76587;41.936;25.550;2024-02-21T05:29:02;53.60;;;27.70;;
86007;SDS011;76587;41.936;25.550;2024-02-21T05:31:42;56.25;;;28.83;;
86007;SDS011;76587;41.936;25.550;2024-02-21T05:34:17;75.57;;;36.28;;
86007;SDS011;76587;41.936;25.550;2024-02-21T05:36:42;67.95;;;34.95;;
86007;SDS011;76587;41.936;25.550;2024-02-21T05:39:08;60.30;;;29.42;;
86007;SDS011;76587;41.936;25.550;2024-02-21T05:41:34;60.13;;;29.00;;
86007;SDS011;76587;41.936;25.550;2024-02-21T05:43:59;52.70;;;28.25;;
86007;SDS011;76587;41.936;25.550;2024-02-21T05:46:24;49.35;;;26.30;;
86007;SDS011;76587;41.936;25.550;2024-02-21T05:48:50;47.60;;;22.95;;
86007;SDS011;76587;41.936;25.550;2024-02-21T05:51:15;45.75;;;24.83;;
86007;SDS011;76587;41.936;25.550;2024-02-21T05:53:41;50.47;;;24.67;;
86007;SDS011;76587;41.936;25.550;2024-02-21T05:56:12;54.95;;;26.85;;
86007;SDS011;76587;41.936;25.550;2024-02-21T05:58:39;52.35;;;23.95;;
86007;SDS011;76587;41.936;25.550;2024-02-21T06:01:05;52.40;;;25.75;;
86007;SDS011;76587;41.936;25.550;2024-02-21T06:03:32;44.13;;;23.30;;
86007;SDS011;76587;41.936;25.550;2024-02-21T06:05:58;50.30;;;23.10;;
86007;SDS011;76587;41.936;25.550;2024-02-21T06:08:24;42.45;;;21.95;;
86007;SDS011;76587;41.936;25.550;2024-02-21T06:10:50;50.33;;;28.33;;
86007;SDS011;76587;41.936;25.550;2024-02-21T06:13:19;52.88;;;24.45;;
86007;SDS011;76587;41.936;25.550;2024-02-21T06:15:53;49.90;;;23.75;;
86007;SDS011;76587;41.936;25.550;2024-02-21T06:18:19;54.67;;;28.58;;
86007;SDS011;76587;41.936;25.550;2024-02-21T06:20:45;56.42;;;31.92;;
86007;SDS011;76587;41.936;25.550;2024-02-21T06:23:12;56.05;;;28.50;;
86007;SDS011;76587;41.936;25.550;2024-02-21T06:25:38;55.40;;;29.48;;
86007;SDS011;76587;41.936;25.550;2024-02-21T06:28:04;66.35;;;34.90;;
86007;SDS011;76587;41.936;25.550;2024-02-21T06:30:30;62.03;;;29.23;;
86007;SDS011;76587;41.936;25.550;2024-02-21T06:32:55;60.90;;;29.30;;
86007;SDS011;76587;41.936;25.550;2024-02-21T06:35:21;57.35;;;27.30;;
86007;SDS011;76587;41.936;25.550;2024-02-21T06:37:49;69.97;;;31.45;;
86007;SDS011;76587;41.936;25.550;2024-02-21T06:40:16;58.35;;;28.98;;
86007;SDS011;76587;41.936;25.550;2024-02-21T06:42:42;61.72;;;31.25;;
86007;SDS011;76587;41.936;25.550;2024-02-21T06:45:07;59.90;;;30.65;;
86007;SDS011;76587;41.936;25.550;2024-02-21T06:47:33;68.78;;;35.55;;
86007;SDS011;76587;41.936;25.550;2024-02-21T06:49:59;113.53;;;48.63;;
86007;SDS011;76587;41.936;25.550;2024-02-21T06:52:24;76.70;;;37.30;;
86007;SDS011;76587;41.936;25.550;2024-02-21T06:54:50;68.57;;;35.80;;
86007;SDS011;76587;41.936;25.550;2024-02-21T06:57:15;55.30;;;28.05;;
86007;SDS011;76587;41.936;25.550;2024-02-21T06:59:41;55.67;;;29.48;;
86007;SDS011;76587;41.936;25.550;2024-02-21T07:02:07;52.60;;;28.08;;
86007;SDS011;76587;41.936;25.550;2024-02-21T07:04:33;57.03;;;31.42;;
86007;SDS011;76587;41.936;25.550;2024-02-21T07:06:59;52.97;;;28.10;;
86007;SDS011;76587;41.936;25.550;2024-02-21T07:09:24;63.22;;;31.42;;
86007;SDS011;76587;41.936;25.550;2024-02-21T07:11:50;59.08;;;30.65;;
86007;SDS011;76587;41.936;25.550;2024-02-21T07:14:15;52.58;;;30.33;;
86007;SDS011;76587;41.936;25.550;2024-02-21T07:16:41;51.15;;;30.30;;
86007;SDS011;76587;41.936;25.550;2024-02-21T07:19:06;59.53;;;30.52;;
86007;SDS011;76587;41.936;25.550;2024-02-21T07:21:32;53.30;;;31.55;;
86007;SDS011;76587;41.936;25.550;2024-02-21T07:23:57;51.50;;;29.33;;
86007;SDS011;76587;41.936;25.550;2024-02-21T07:26:23;47.92;;;27.95;;
86007;SDS011;76587;41.936;25.550;2024-02-21T07:28:48;52.15;;;27.80;;
86007;SDS011;76587;41.936;25.550;2024-02-21T07:31:14;60.20;;;28.35;;
86007;SDS011;76587;41.936;25.550;2024-02-21T07:33:39;47.20;;;26.45;;
86007;SDS011;76587;41.936;25.550;2024-02-21T07:36:06;47.15;;;24.55;;
86007;SDS011;76587;41.936;25.550;2024-02-21T07:38:33;50.35;;;23.65;;
86007;SDS011;76587;41.936;25.550;2024-02-21T07:40:59;49.10;;;27.67;;
86007;SDS011;76587;41.936;25.550;2024-02-21T07:43:24;56.40;;;27.02;;
86007;SDS011;76587;41.936;25.550;2024-02-21T07:45:51;52.05;;;25.58;;
86007;SDS011;76587;41.936;25.550;2024-02-21T07:48:18;47.42;;;23.88;;
86007;SDS011;76587;41.936;25.550;2024-02-21T07:50:44;30.98;;;17.00;;
86007;SDS011;76587;41.936;25.550;2024-02-21T07:53:09;31.85;;;17.08;;
86007;SDS011;76587;41.936;25.550;2024-02-21T07:55:35;34.92;;;17.38;;
86007;SDS011;76587;41.936;25.550;2024-02-21T07:58:00;31.15;;;16.50;;
86007;SDS011;76587;41.936;25.550;2024-02-21T08:00:26;30.52;;;16.02;;
86007;SDS011;76587;41.936;25.550;2024-02-21T08:02:51;29.67;;;15.98;;
86007;SDS011;76587;41.936;25.550;2024-02-21T08:05:17;32.47;;;16.33;;
86007;SDS011;76587;41.936;25.550;2024-02-21T08:07:42;30.83;;;16.58;;
86007;SDS011;76587;41.936;25.550;2024-02-21T08:10:08;30.67;;;16.05;;
86007;SDS011;76587;41.936;25.550;2024-02-21T08:12:34;34.80;;;18.02;;
86007;SDS011;76587;41.936;25.550;2024-02-21T08:14:59;29.58;;;15.90;;
86007;SDS011;76587;41.936;25.550;2024-02-21T08:17:25;34.33;;;18.02;;
86007;SDS011;76587;41.936;25.550;2024-02-21T08:19:50;34.70;;;17.10;;
86007;SDS011;76587;41.936;25.550;2024-02-21T08:22:16;34.17;;;16.08;;
86007;SDS011;76587;41.936;25.550;2024-02-21T08:24:41;30.23;;;16.15;;
86007;SDS011;76587;41.936;25.550;2024-02-21T08:27:07;28.25;;;15.60;;
86007;SDS011;76587;41.936;25.550;2024-02-21T08:29:32;31.48;;;17.25;;
86007;SDS011;76587;41.936;25.550;2024-02-21T08:31:58;32.95;;;17.05;;
86007;SDS011;76587;41.936;25.550;2024-02-21T08:34:23;35.65;;;19.65;;
86007;SDS011;76587;41.936;25.550;2024-02-21T08:36:49;30.67;;;17.63;;
86007;SDS011;76587;41.936;25.550;2024-02-21T08:39:14;29.38;;;16.80;;
86007;SDS011;76587;41.936;25.550;2024-02-21T08:41:41;31.92;;;17.55;;
86007;SDS011;76587;41.936;25.550;2024-02-21T08:44:07;36.03;;;18.67;;
86007;SDS011;76587;41.936;25.550;2024-02-21T08:46:33;34.15;;;17.02;;
86007;SDS011;76587;41.936;25.550;2024-02-21T08:48:58;32.90;;;20.95;;
86007;SDS011;76587;41.936;25.550;2024-02-21T08:51:24;27.80;;;16.67;;
86007;SDS011;76587;41.936;25.550;2024-02-21T08:53:50;30.77;;;16.88;;
86007;SDS011;76587;41.936;25.550;2024-02-21T08:56:16;32.60;;;18.60;;
86007;SDS011;76587;41.936;25.550;2024-02-21T08:58:42;30.58;;;17.45;;
86007;SDS011;76587;41.936;25.550;2024-02-21T09:01:08;33.80;;;18.60;;
86007;SDS011;76587;41.936;25.550;2024-02-21T09:03:37;29.92;;;17.60;;
86007;SDS011;76587;41.936;25.550;2024-02-21T09:06:06;28.27;;;17.35;;
86007;SDS011;76587;41.936;25.550;2024-02-21T09:08:32;25.85;;;17.60;;
86007;SDS011;76587;41.936;25.550;2024-02-21T09:10:59;25.38;;;17.15;;
86007;SDS011;76587;41.936;25.550;2024-02-21T09:13:25;28.52;;;17.90;;
86007;SDS011;76587;41.936;25.550;2024-02-21T09:15:51;30.02;;;18.23;;
86007;SDS011;76587;41.936;25.550;2024-02-21T09:18:16;30.00;;;18.15;;
86007;SDS011;76587;41.936;25.550;2024-02-21T09:20:42;25.42;;;17.00;;
86007;SDS011;76587;41.936;25.550;2024-02-21T09:23:07;35.90;;;20.95;;
86007;SDS011;76587;41.936;25.550;2024-02-21T09:25:33;27.60;;;18.95;;
86007;SDS011;76587;41.936;25.550;2024-02-21T09:28:00;25.98;;;15.95;;
86007;SDS011;76587;41.936;25.550;2024-02-21T09:30:26;24.25;;;14.57;;
86007;SDS011;76587;41.936;25.550;2024-02-21T09:32:52;20.83;;;14.63;;
86007;SDS011;76587;41.936;25.550;2024-02-21T09:35:18;19.92;;;15.88;;
86007;SDS011;76587;41.936;25.550;2024-02-21T09:37:43;20.95;;;15.35;;
86007;SDS011;76587;41.936;25.550;2024-02-21T09:40:09;22.38;;;14.73;;
86007;SDS011;76587;41.936;25.550;2024-02-21T09:42:38;20.58;;;13.95;;
86007;SDS011;76587;41.936;25.550;2024-02-21T09:45:07;20.00;;;14.32;;
86007;SDS011;76587;41.936;25.550;2024-02-21T09:47:44;23.85;;;18.67;;
86007;SDS011;76587;41.936;25.550;2024-02-21T09:50:31;22.33;;;13.70;;
86007;SDS011;76587;41.936;25.550;2024-02-21T09:52:59;21.63;;;14.00;;
86007;SDS011;76587;41.936;25.550;2024-02-21T09:55:27;20.67;;;14.90;;
86007;SDS011;76587;41.936;25.550;2024-02-21T09:57:57;19.75;;;13.52;;
86007;SDS011;76587;41.936;25.550;2024-02-21T10:00:24;19.88;;;14.18;;
86007;SDS011;76587;41.936;25.550;2024-02-21T10:02:49;23.67;;;15.20;;
86007;SDS011;76587;41.936;25.550;2024-02-21T10:05:15;18.85;;;13.05;;
86007;SDS011;76587;41.936;25.550;2024-02-21T10:07:42;16.25;;;12.00;;
86007;SDS011;76587;41.936;25.550;2024-02-21T10:10:09;19.58;;;13.50;;
86007;SDS011;76587;41.936;25.550;2024-02-21T10:12:35;17.08;;;12.75;;
86007;SDS011;76587;41.936;25.550;2024-02-21T10:15:01;19.48;;;12.27;;
86007;SDS011;76587;41.936;25.550;2024-02-21T10:17:27;16.42;;;12.20;;
86007;SDS011;76587;41.936;25.550;2024-02-21T10:19:53;20.05;;;13.60;;
86007;SDS011;76587;41.936;25.550;2024-02-21T10:22:18;21.23;;;13.52;;
86007;SDS011;76587;41.936;25.550;2024-02-21T10:24:46;21.40;;;12.05;;
86007;SDS011;76587;41.936;25.550;2024-02-21T10:27:11;21.33;;;12.10;;
86007;SDS011;76587;41.936;25.550;2024-02-21T10:29:37;19.40;;;12.38;;
86007;SDS011;76587;41.936;25.550;2024-02-21T10:32:13;17.83;;;10.80;;
86007;SDS011;76587;41.936;25.550;2024-02-21T10:34:39;19.27;;;11.05;;
86007;SDS011;76587;41.936;25.550;2024-02-21T10:37:07;18.08;;;11.50;;
86007;SDS011;76587;41.936;25.550;2024-02-21T10:39:35;16.48;;;10.68;;
86007;SDS011;76587;41.936;25.550;2024-02-21T10:42:02;18.52;;;10.15;;
86007;SDS011;76587;41.936;25.550;2024-02-21T10:44:29;15.02;;;8.75;;
86007;SDS011;76587;41.936;25.550;2024-02-21T10:46:56;14.88;;;9.05;;
86007;SDS011;76587;41.936;25.550;2024-02-21T10:49:22;13.15;;;8.90;;
86007;SDS011;76587;41.936;25.550;2024-02-21T10:54:48;11.65;;;6.95;;
86007;SDS011;76587;41.936;25.550;2024-02-21T10:57:15;13.20;;;8.20;;
86007;SDS011;76587;41.936;25.550;2024-02-21T10:59:42;13.73;;;7.97;;
86007;SDS011;76587;41.936;25.550;2024-02-21T11:02:10;12.68;;;7.65;;
86007;SDS011;76587;41.936;25.550;2024-02-21T11:04:35;10.73;;;7.65;;
86007;SDS011;76587;41.936;25.550;2024-02-21T11:07:04;12.25;;;7.93;;
86007;SDS011;76587;41.936;25.550;2024-02-21T11:09:31;14.45;;;8.45;;
86007;SDS011;76587;41.936;25.550;2024-02-21T11:12:06;11.23;;;7.70;;
86007;SDS011;76587;41.936;25.550;2024-02-21T11:14:31;9.35;;;7.05;;
86007;SDS011;76587;41.936;25.550;2024-02-21T11:16:58;11.27;;;8.20;;
86007;SDS011;76587;41.936;25.550;2024-02-21T11:19:27;13.25;;;8.05;;
86007;SDS011;76587;41.936;25.550;2024-02-21T11:21:55;11.45;;;7.72;;
86007;SDS011;76587;41.936;25.550;2024-02-21T11:24:29;14.63;;;7.22;;
86007;SDS011;76587;41.936;25.550;2024-02-21T11:26:55;10.00;;;6.40;;
86007;SDS011;76587;41.936;25.550;2024-02-21T11:29:24;7.68;;;5.30;;
86007;SDS011;76587;41.936;25.550;2024-02-21T11:31:50;10.55;;;6.95;;
86007;SDS011;76587;41.936;25.550;2024-02-21T11:34:19;8.00;;;6.50;;
86007;SDS011;76587;41.936;25.550;2024-02-21T11:36:48;9.30;;;6.88;;
86007;SDS011;76587;41.936;25.550;2024-02-21T11:39:22;9.90;;;6.85;;
86007;SDS011;76587;41.936;25.550;2024-02-21T11:42:05;11.45;;;7.93;;
86007;SDS011;76587;41.936;25.550;2024-02-21T11:44:34;11.60;;;6.35;;
86007;SDS011;76587;41.936;25.550;2024-02-21T11:47:00;9.40;;;6.22;;
86007;SDS011;76587;41.936;25.550;2024-02-21T11:49:27;9.68;;;7.43;;
86007;SDS011;76587;41.936;25.550;2024-02-21T11:52:00;14.55;;;8.63;;
86007;SDS011;76587;41.936;25.550;2024-02-21T11:54:27;10.00;;;6.32;;
86007;SDS011;76587;41.936;25.550;2024-02-21T11:56:53;7.60;;;5.07;;
86007;SDS011;76587;41.936;25.550;2024-02-21T11:59:18;7.25;;;4.88;;
86007;SDS011;76587;41.936;25.550;2024-02-21T12:01:44;13.70;;;7.35;;
86007;SDS011;76587;41.936;25.550;2024-02-21T12:04:10;8.70;;;7.53;;
86007;SDS011;76587;41.936;25.550;2024-02-21T12:06:35;9.00;;;5.30;;
86007;SDS011;76587;41.936;25.550;2024-02-21T12:09:01;10.18;;;5.90;;
86007;SDS011;76587;41.936;25.550;2024-02-21T12:11:26;12.50;;;6.93;;
86007;SDS011;76587;41.936;25.550;2024-02-21T12:13:58;11.10;;;6.00;;
86007;SDS011;76587;41.936;25.550;2024-02-21T12:16:28;14.40;;;7.35;;
86007;SDS011;76587;41.936;25.550;2024-02-21T12:18:55;9.15;;;5.30;;
86007;SDS011;76587;41.936;25.550;2024-02-21T12:21:25;9.57;;;5.20;;
86007;SDS011;76587;41.936;25.550;2024-02-21T12:23:55;11.32;;;6.15;;
86007;SDS011;76587;41.936;25.550;2024-02-21T12:26:21;10.25;;;5.90;;
86007;SDS011;76587;41.936;25.550;2024-02-21T12:28:47;9.85;;;5.40;;
86007;SDS011;76587;41.936;25.550;2024-02-21T12:31:12;9.45;;;5.15;;
86007;SDS011;76587;41.936;25.550;2024-02-21T12:33:38;7.90;;;4.82;;
86007;SDS011;76587;41.936;25.550;2024-02-21T12:36:04;7.63;;;4.47;;
86007;SDS011;76587;41.936;25.550;2024-02-21T12:38:30;10.15;;;5.60;;
86007;SDS011;76587;41.936;25.550;2024-02-21T12:40:55;8.98;;;4.85;;
86007;SDS011;76587;41.936;25.550;2024-02-21T12:43:23;8.75;;;5.22;;
86007;SDS011;76587;41.936;25.550;2024-02-21T12:45:49;8.75;;;4.57;;
86007;SDS011;76587;41.936;25.550;2024-02-21T12:48:14;10.00;;;5.45;;
86007;SDS011;76587;41.936;25.550;2024-02-21T12:50:41;10.98;;;5.10;;
86007;SDS011;76587;41.936;25.550;2024-02-21T12:53:15;14.10;;;7.90;;
86007;SDS011;76587;41.936;25.550;2024-02-21T12:55:41;10.35;;;4.97;;
86007;SDS011;76587;41.936;25.550;2024-02-21T12:58:06;13.23;;;5.90;;
86007;SDS011;76587;41.936;25.550;2024-02-21T13:00:32;12.20;;;5.07;;
86007;SDS011;76587;41.936;25.550;2024-02-21T13:02:58;11.35;;;5.32;;
86007;SDS011;76587;41.936;25.550;2024-02-21T13:05:24;8.43;;;4.13;;
86007;SDS011;76587;41.936;25.550;2024-02-21T13:07:49;8.98;;;4.57;;
86007;SDS011;76587;41.936;25.550;2024-02-21T13:10:15;8.45;;;4.82;;
86007;SDS011;76587;41.936;25.550;2024-02-21T13:12:40;15.50;;;6.75;;
86007;SDS011;76587;41.936;25.550;2024-02-21T13:15:06;11.73;;;6.20;;
86007;SDS011;76587;41.936;25.550;2024-02-21T13:17:32;8.90;;;5.43;;
86007;SDS011;76587;41.936;25.550;2024-02-21T13:19:58;13.70;;;5.28;;
86007;SDS011;76587;41.936;25.550;2024-02-21T13:22:23;8.75;;;6.05;;
86007;SDS011;76587;41.936;25.550;2024-02-21T13:24:51;9.18;;;5.68;;
86007;SDS011;76587;41.936;25.550;2024-02-21T13:27:17;10.80;;;7.03;;
86007;SDS011;76587;41.936;25.550;2024-02-21T13:29:42;10.98;;;5.70;;
86007;SDS011;76587;41.936;25.550;2024-02-21T13:32:08;9.40;;;5.32;;
86007;SDS011;76587;41.936;25.550;2024-02-21T13:34:33;9.73;;;5.47;;
86007;SDS011;76587;41.936;25.550;2024-02-21T13:36:59;9.30;;;5.00;;
86007;SDS011;76587;41.936;25.550;2024-02-21T13:39:24;10.38;;;5.03;;
86007;SDS011;76587;41.936;25.550;2024-02-21T13:41:50;8.13;;;4.55;;
86007;SDS011;76587;41.936;25.550;2024-02-21T13:44:15;8.48;;;4.45;;
86007;SDS011;76587;41.936;25.550;2024-02-21T13:46:41;8.70;;;4.40;;
86007;SDS011;76587;41.936;25.550;2024-02-21T13:49:06;8.57;;;4.63;;
86007;SDS011;76587;41.936;25.550;2024-02-21T13:51:35;7.30;;;3.65;;
86007;SDS011;76587;41.936;25.550;2024-02-21T13:54:01;10.25;;;4.85;;
86007;SDS011;76587;41.936;25.550;2024-02-21T13:56:28;8.45;;;4.82;;
86007;SDS011;76587;41.936;25.550;2024-02-21T13:58:54;9.23;;;4.38;;
86007;SDS011;76587;41.936;25.550;2024-02-21T14:01:20;7.53;;;4.07;;
86007;SDS011;76587;41.936;25.550;2024-02-21T14:03:45;7.70;;;4.65;;
86007;SDS011;76587;41.936;25.550;2024-02-21T14:06:11;10.10;;;5.35;;
86007;SDS011;76587;41.936;25.550;2024-02-21T14:08:37;8.00;;;4.10;;
86007;SDS011;76587;41.936;25.550;2024-02-21T14:11:04;11.02;;;5.05;;